createdAt,value
2019-02-10T00:00:59.783Z,48.90
2019-02-10T00:06:04.694Z,46.23
2019-02-10T00:11:10.413Z,44.77
2019-02-10T00:16:19.141Z,43.40
2019-02-10T00:21:24.424Z,44.33
2019-02-10T00:26:30.962Z,43.60
2019-02-10T00:31:36.204Z,40.77
2019-02-10T00:36:40.467Z,43.47
2019-02-10T00:41:45.365Z,39.33
2019-02-10T00:46:49.834Z,38.73
2019-02-10T00:52:00.982Z,43.83
2019-02-10T00:57:06.558Z,50.77
2019-02-10T01:02:12.523Z,44.50
2019-02-10T01:07:17.229Z,36.37
2019-02-10T01:12:21.790Z,39.93
2019-02-10T01:17:27.160Z,39.13
2019-02-10T01:22:31.524Z,37.23
2019-02-10T01:27:36.404Z,35.07
2019-02-10T01:32:41.569Z,38.87
2019-02-10T01:37:46.280Z,41.10
2019-02-10T01:42:50.662Z,37.90
2019-02-10T01:47:54.942Z,36.13
2019-02-10T01:52:59.222Z,34.23
2019-02-10T01:58:03.825Z,34.47
2019-02-10T02:03:08.219Z,36.40
2019-02-10T02:08:12.850Z,33.50
2019-02-10T02:13:17.226Z,34.83
2019-02-10T02:18:21.510Z,36.43
2019-02-10T02:23:25.727Z,35.73
2019-02-10T02:28:30.003Z,34.07
2019-02-10T02:33:35.273Z,32.80
2019-02-10T02:38:39.953Z,29.60
2019-02-10T02:43:44.331Z,28.73
2019-02-10T02:48:48.502Z,29.40
2019-02-10T02:53:52.635Z,32.00
2019-02-10T02:58:56.868Z,33.67
2019-02-10T03:04:01.415Z,31.47
2019-02-10T03:09:07.214Z,30.67
2019-02-10T03:14:11.697Z,28.27
2019-02-10T03:19:15.882Z,29.93
2019-02-10T03:24:20.278Z,27.80
2019-02-10T03:29:24.842Z,30.77
2019-02-10T03:34:29.021Z,29.13
2019-02-10T03:39:33.934Z,26.53
2019-02-10T03:44:38.102Z,26.70
2019-02-10T03:49:42.573Z,28.60
2019-02-10T03:54:46.746Z,28.63
2019-02-10T03:59:50.950Z,28.73
2019-02-10T04:04:55.128Z,27.33
2019-02-10T04:09:59.391Z,28.20
2019-02-10T04:15:04.806Z,27.57
2019-02-10T04:20:10.519Z,26.93
2019-02-10T04:25:16.225Z,26.27
2019-02-10T04:30:20.399Z,27.33
2019-02-10T04:35:25.073Z,24.40
2019-02-10T04:40:30.271Z,25.50
2019-02-10T04:45:34.439Z,25.30
2019-02-10T04:50:38.702Z,25.00
2019-02-10T04:55:42.904Z,22.80
2019-02-10T05:00:47.574Z,22.20
2019-02-10T05:05:51.774Z,23.57
2019-02-10T05:10:56.073Z,23.17
2019-02-10T05:16:00.270Z,23.63
2019-02-10T05:21:04.775Z,22.00
2019-02-10T05:26:09.778Z,23.17
2019-02-10T05:31:15.487Z,22.23
2019-02-10T05:36:19.871Z,23.37
2019-02-10T05:41:24.962Z,23.30
2019-02-10T05:46:29.239Z,20.93
2019-02-10T05:51:33.926Z,27.77
2019-02-10T05:56:38.701Z,21.67
2019-02-10T06:02:05.695Z,21.80
2019-02-10T06:07:12.645Z,23.27
2019-02-10T06:12:17.717Z,21.57
2019-02-10T06:17:22.001Z,19.63
2019-02-10T06:22:26.289Z,22.77
2019-02-10T06:27:30.577Z,21.70
2019-02-10T06:32:34.952Z,20.87
2019-02-10T06:37:39.429Z,20.93
2019-02-10T06:42:43.965Z,20.50
2019-02-10T06:47:48.565Z,20.37
2019-02-10T06:52:53.040Z,19.23
2019-02-10T06:57:57.246Z,20.33
2019-02-10T07:03:36.078Z,20.90
2019-02-10T07:08:40.966Z,22.07
2019-02-10T07:13:50.906Z,20.03
2019-02-10T07:19:30.976Z,22.67
2019-02-10T07:24:53.344Z,18.73
2019-02-10T07:30:43.642Z,18.47
2019-02-10T07:36:56.206Z,17.97
2019-02-10T07:42:28.609Z,18.40
2019-02-10T07:48:12.919Z,18.73
2019-02-10T07:53:48.335Z,18.17
2019-02-10T07:59:30.617Z,19.37
2019-02-10T08:05:06.258Z,17.37
2019-02-10T08:10:55.413Z,16.50
2019-02-10T08:16:17.770Z,17.87
2019-02-10T08:22:15.153Z,17.37
2019-02-10T08:27:40.277Z,17.50
2019-02-10T08:33:06.625Z,17.77
2019-02-10T08:38:46.259Z,19.27
2019-02-10T08:44:18.999Z,15.63
2019-02-10T08:50:13.346Z,17.00
2019-02-10T08:55:19.209Z,16.67
2019-02-10T09:00:23.909Z,16.00
2019-02-10T09:05:28.399Z,16.17
2019-02-10T09:10:32.607Z,15.00
2019-02-10T09:15:36.785Z,16.13
2019-02-10T09:20:41.070Z,15.17
2019-02-10T09:25:45.355Z,14.77
2019-02-10T09:30:49.535Z,14.37
2019-02-10T09:35:53.718Z,17.37
2019-02-10T09:40:57.889Z,17.43
2019-02-10T09:46:02.066Z,15.77
2019-02-10T09:51:07.118Z,15.13
2019-02-10T09:56:12.885Z,15.63
2019-02-10T10:01:18.614Z,16.40
2019-02-10T10:06:22.861Z,14.43
2019-02-10T10:11:27.251Z,14.37
2019-02-10T10:16:32.026Z,15.13
2019-02-10T10:21:37.005Z,14.77
2019-02-10T10:26:41.369Z,16.17
2019-02-10T10:31:46.569Z,18.50
2019-02-10T10:36:50.750Z,117.00
2019-02-10T10:41:55.245Z,247.27
2019-02-10T10:46:59.723Z,235.53
2019-02-10T10:52:03.919Z,200.97
2019-02-10T10:57:09.649Z,311.13
2019-02-10T11:02:14.134Z,310.43
2019-02-10T11:07:18.621Z,271.13
2019-02-10T11:12:22.908Z,165.00
2019-02-10T11:17:27.467Z,115.60
2019-02-10T11:22:31.735Z,104.53
2019-02-10T11:27:36.234Z,88.63
2019-02-10T11:32:40.838Z,109.40
2019-02-10T11:37:45.421Z,127.93
2019-02-10T11:42:49.709Z,133.00
2019-02-10T11:47:54.109Z,148.13
2019-02-10T11:52:59.717Z,131.77
2019-02-10T11:58:04.147Z,122.87
2019-02-10T12:03:09.865Z,112.93
2019-02-10T12:08:14.665Z,96.50
2019-02-10T12:13:18.863Z,89.83
2019-02-10T12:18:23.349Z,81.10
2019-02-10T12:23:27.546Z,71.77
2019-02-10T12:28:32.813Z,62.43
2019-02-10T12:33:37.328Z,65.63
2019-02-10T12:38:41.641Z,58.90
2019-02-10T12:43:45.842Z,56.33
2019-02-10T12:48:50.238Z,63.43
2019-02-10T12:53:54.531Z,63.70
2019-02-10T12:58:58.974Z,56.33
2019-02-10T13:04:04.489Z,46.70
2019-02-10T13:09:09.675Z,46.50
2019-02-10T13:14:15.466Z,42.03
2019-02-10T13:19:19.766Z,56.43
2019-02-10T13:24:24.819Z,52.90
2019-02-10T13:29:29.453Z,44.03
2019-02-10T13:34:33.637Z,48.77
2019-02-10T13:39:38.293Z,45.30
2019-02-10T13:44:42.470Z,36.30
2019-02-10T13:49:46.654Z,41.20
2019-02-10T13:54:50.837Z,38.93
2019-02-10T13:59:55.278Z,38.63
2019-02-10T14:05:00.250Z,39.07
2019-02-10T14:10:06.278Z,36.70
2019-02-10T14:15:12.546Z,34.57
2019-02-10T14:20:18.278Z,37.90
2019-02-10T14:25:22.733Z,37.73
2019-02-10T14:30:27.365Z,36.00
2019-02-10T14:35:32.264Z,37.10
2019-02-10T14:40:37.522Z,34.97
2019-02-10T14:45:41.714Z,34.13
2019-02-10T14:50:46.770Z,34.07
2019-02-10T14:55:50.955Z,42.13
2019-02-10T15:00:55.882Z,45.37
2019-02-10T15:06:00.349Z,40.87
2019-02-10T15:11:04.733Z,39.07
2019-02-10T15:16:10.335Z,42.63
2019-02-10T15:21:14.712Z,39.03
2019-02-10T15:26:18.878Z,38.90
2019-02-10T15:31:23.185Z,36.40
2019-02-10T15:36:27.620Z,35.57
2019-02-10T15:41:32.049Z,35.37
2019-02-10T15:46:36.590Z,29.30
2019-02-10T15:51:40.983Z,36.47
2019-02-10T15:56:45.318Z,34.20
2019-02-10T16:01:49.636Z,28.30
2019-02-10T16:06:53.862Z,38.20
2019-02-10T16:11:58.095Z,31.90
2019-02-10T16:17:02.326Z,30.60
2019-02-10T16:22:07.935Z,38.93
2019-02-10T16:27:12.370Z,30.37
2019-02-10T16:32:17.151Z,162.37
2019-02-10T16:37:21.437Z,281.37
2019-02-10T16:42:27.205Z,148.30
2019-02-10T16:47:31.433Z,89.07
2019-02-10T16:52:35.799Z,76.57
2019-02-10T16:57:39.993Z,78.97
2019-02-10T17:02:44.366Z,72.17
2019-02-10T17:07:48.675Z,58.23
2019-02-10T17:12:53.835Z,315.27
2019-02-10T17:18:00.552Z,483.90
2019-02-10T17:23:05.098Z,344.27
2019-02-10T17:28:10.752Z,322.80
2019-02-10T17:33:14.984Z,278.17
2019-02-10T17:38:19.362Z,158.10
2019-02-10T17:43:28.227Z,132.20
2019-02-10T17:48:29.547Z,136.90
2019-02-10T17:53:34.254Z,130.73
2019-02-10T17:58:38.557Z,132.80
2019-02-10T18:03:43.670Z,130.33
2019-02-10T18:08:48.708Z,120.87
2019-02-10T18:13:53.120Z,125.17
2019-02-10T18:18:58.761Z,127.63
2019-02-10T18:24:03.501Z,125.60
2019-02-10T18:29:10.083Z,128.13
2019-02-10T18:34:14.661Z,126.27
2019-02-10T18:39:20.543Z,114.53
2019-02-10T18:44:25.293Z,115.97
2019-02-10T18:49:29.519Z,103.13
2019-02-10T18:54:34.812Z,96.63
2019-02-10T18:59:39.565Z,93.17
2019-02-10T19:04:44.760Z,96.57
2019-02-10T19:09:49.311Z,95.27
2019-02-10T19:14:53.541Z,99.20
2019-02-10T19:19:57.734Z,83.80
2019-02-10T19:25:01.928Z,82.30
2019-02-10T19:30:08.918Z,86.37
2019-02-10T19:35:13.851Z,98.57
2019-02-10T19:40:18.505Z,88.87
2019-02-10T19:45:22.676Z,86.20
2019-02-10T19:50:26.922Z,86.47
2019-02-10T19:55:31.437Z,89.03
2019-02-10T20:00:35.673Z,84.93
2019-02-10T20:05:40.925Z,70.10
2019-02-10T20:10:45.341Z,70.67
2019-02-10T20:15:49.890Z,69.53
2019-02-10T20:20:54.348Z,74.37
2019-02-10T20:25:58.561Z,69.50
2019-02-10T20:31:06.123Z,66.53
2019-02-10T20:36:08.817Z,60.40
2019-02-10T20:41:14.583Z,63.73
2019-02-10T20:46:18.786Z,63.00
2019-02-10T20:51:23.146Z,55.43
2019-02-10T20:56:27.447Z,56.40
2019-02-10T21:01:31.660Z,55.37
2019-02-10T21:06:35.965Z,55.90
2019-02-10T21:11:40.570Z,55.77
2019-02-10T21:16:44.981Z,56.63
2019-02-10T21:21:49.272Z,59.50
2019-02-10T21:26:53.543Z,59.77
2019-02-10T21:31:57.729Z,53.83
2019-02-10T21:37:02.014Z,57.70
2019-02-10T21:42:07.433Z,54.27
2019-02-10T21:47:11.648Z,49.70
2019-02-10T21:52:15.995Z,51.40
2019-02-10T21:57:20.310Z,48.17
2019-02-10T22:02:24.858Z,50.30
2019-02-10T22:07:29.294Z,51.60
2019-02-10T22:12:37.104Z,42.50
2019-02-10T22:17:39.663Z,45.73
2019-02-10T22:22:44.037Z,43.73
2019-02-10T22:27:48.245Z,43.43
2019-02-10T22:32:52.442Z,48.50
2019-02-10T22:37:57.300Z,45.23
2019-02-10T22:43:01.511Z,43.93
2019-02-10T22:48:06.824Z,45.70
2019-02-10T22:53:12.556Z,43.23
2019-02-10T22:58:16.953Z,44.30
2019-02-10T23:03:21.168Z,38.43
2019-02-10T23:08:25.479Z,40.43
2019-02-10T23:13:29.806Z,40.80
2019-02-10T23:18:34.581Z,39.73
2019-02-10T23:23:38.865Z,34.93
2019-02-10T23:28:43.154Z,36.20
2019-02-10T23:33:48.083Z,38.40
2019-02-10T23:38:53.343Z,36.10
2019-02-10T23:43:58.113Z,34.27
2019-02-10T23:49:02.285Z,32.77
2019-02-10T23:54:06.797Z,35.83
2019-02-10T23:59:11.066Z,34.33
